sensor_id;sensor_type;location;lat;lon;timestamp;P1;durP1;ratioP1;P2;durP2;ratioP2
35225;SDS011;21813;49.686;21.766;2023-03-29T00:02:44;14.73;;;6.95;;
35225;SDS011;21813;49.686;21.766;2023-03-29T00:05:15;15.68;;;7.50;;
35225;SDS011;21813;49.686;21.766;2023-03-29T00:07:47;12.23;;;6.97;;
35225;SDS011;21813;49.686;21.766;2023-03-29T00:12:45;14.20;;;7.28;;
35225;SDS011;21813;49.686;21.766;2023-03-29T00:15:12;8.15;;;6.22;;
35225;SDS011;21813;49.686;21.766;2023-03-29T00:17:37;17.55;;;7.32;;
35225;SDS011;21813;49.686;21.766;2023-03-29T00:20:03;13.85;;;7.07;;
35225;SDS011;21813;49.686;21.766;2023-03-29T00:22:35;9.30;;;5.73;;
35225;SDS011;21813;49.686;21.766;2023-03-29T00:25:02;10.75;;;6.22;;
35225;SDS011;21813;49.686;21.766;2023-03-29T00:27:28;12.10;;;6.72;;
35225;SDS011;21813;49.686;21.766;2023-03-29T00:29:54;13.00;;;6.63;;
35225;SDS011;21813;49.686;21.766;2023-03-29T00:32:20;14.70;;;7.45;;
35225;SDS011;21813;49.686;21.766;2023-03-29T00:34:46;12.77;;;7.03;;
35225;SDS011;21813;49.686;21.766;2023-03-29T00:37:17;14.55;;;6.47;;
35225;SDS011;21813;49.686;21.766;2023-03-29T00:39:45;16.40;;;7.28;;
35225;SDS011;21813;49.686;21.766;2023-03-29T00:42:15;14.20;;;6.97;;
35225;SDS011;21813;49.686;21.766;2023-03-29T00:47:27;11.35;;;6.78;;
35225;SDS011;21813;49.686;21.766;2023-03-29T00:49:59;14.10;;;7.68;;
35225;SDS011;21813;49.686;21.766;2023-03-29T00:52:29;17.10;;;7.87;;
35225;SDS011;21813;49.686;21.766;2023-03-29T00:54:58;13.55;;;6.18;;
35225;SDS011;21813;49.686;21.766;2023-03-29T00:57:31;12.95;;;6.35;;
35225;SDS011;21813;49.686;21.766;2023-03-29T00:59:59;10.68;;;6.28;;
35225;SDS011;21813;49.686;21.766;2023-03-29T01:02:29;13.13;;;7.57;;
35225;SDS011;21813;49.686;21.766;2023-03-29T01:05:03;11.38;;;6.80;;
35225;SDS011;21813;49.686;21.766;2023-03-29T01:07:44;12.65;;;6.68;;
35225;SDS011;21813;49.686;21.766;2023-03-29T01:30:17;14.50;;;5.82;;
35225;SDS011;21813;49.686;21.766;2023-03-29T01:32:57;10.13;;;6.13;;
35225;SDS011;21813;49.686;21.766;2023-03-29T01:35:41;14.93;;;6.68;;
35225;SDS011;21813;49.686;21.766;2023-03-29T01:38:14;12.27;;;6.68;;
35225;SDS011;21813;49.686;21.766;2023-03-29T01:40:46;9.85;;;5.63;;
35225;SDS011;21813;49.686;21.766;2023-03-29T01:43:28;10.70;;;5.63;;
35225;SDS011;21813;49.686;21.766;2023-03-29T01:48:56;10.65;;;4.97;;
35225;SDS011;21813;49.686;21.766;2023-03-29T01:51:41;12.52;;;5.55;;
35225;SDS011;21813;49.686;21.766;2023-03-29T01:57:18;8.80;;;5.15;;
35225;SDS011;21813;49.686;21.766;2023-03-29T01:59:44;11.13;;;5.15;;
35225;SDS011;21813;49.686;21.766;2023-03-29T02:02:12;15.25;;;5.63;;
35225;SDS011;21813;49.686;21.766;2023-03-29T02:04:42;11.05;;;5.07;;
35225;SDS011;21813;49.686;21.766;2023-03-29T02:07:15;9.02;;;4.78;;
35225;SDS011;21813;49.686;21.766;2023-03-29T02:09:44;9.90;;;5.15;;
35225;SDS011;21813;49.686;21.766;2023-03-29T02:12:14;11.65;;;5.07;;
35225;SDS011;21813;49.686;21.766;2023-03-29T02:14:41;8.98;;;4.68;;
35225;SDS011;21813;49.686;21.766;2023-03-29T02:17:25;10.48;;;5.22;;
35225;SDS011;21813;49.686;21.766;2023-03-29T02:20:01;9.88;;;4.90;;
35225;SDS011;21813;49.686;21.766;2023-03-29T02:22:52;8.18;;;5.43;;
35225;SDS011;21813;49.686;21.766;2023-03-29T02:25:23;11.30;;;5.05;;
35225;SDS011;21813;49.686;21.766;2023-03-29T02:27:53;7.15;;;4.57;;
35225;SDS011;21813;49.686;21.766;2023-03-29T02:30:21;9.45;;;5.68;;
35225;SDS011;21813;49.686;21.766;2023-03-29T02:33:04;9.80;;;5.03;;
35225;SDS011;21813;49.686;21.766;2023-03-29T02:40:24;9.77;;;6.00;;
35225;SDS011;21813;49.686;21.766;2023-03-29T02:42:51;11.23;;;5.35;;
35225;SDS011;21813;49.686;21.766;2023-03-29T02:45:20;12.05;;;5.65;;
35225;SDS011;21813;49.686;21.766;2023-03-29T02:47:48;12.60;;;6.32;;
35225;SDS011;21813;49.686;21.766;2023-03-29T02:50:20;12.48;;;5.93;;
35225;SDS011;21813;49.686;21.766;2023-03-29T02:52:53;10.65;;;5.80;;
35225;SDS011;21813;49.686;21.766;2023-03-29T02:55:24;9.27;;;5.78;;
35225;SDS011;21813;49.686;21.766;2023-03-29T02:58:01;10.93;;;5.97;;
35225;SDS011;21813;49.686;21.766;2023-03-29T03:00:37;13.98;;;7.07;;
35225;SDS011;21813;49.686;21.766;2023-03-29T03:03:14;15.50;;;6.47;;
35225;SDS011;21813;49.686;21.766;2023-03-29T03:06:07;15.80;;;6.60;;
35225;SDS011;21813;49.686;21.766;2023-03-29T03:08:34;13.20;;;6.53;;
35225;SDS011;21813;49.686;21.766;2023-03-29T03:11:00;11.55;;;5.50;;
35225;SDS011;21813;49.686;21.766;2023-03-29T03:13:26;12.75;;;6.68;;
35225;SDS011;21813;49.686;21.766;2023-03-29T03:15:52;10.32;;;5.53;;
35225;SDS011;21813;49.686;21.766;2023-03-29T03:18:25;10.07;;;5.85;;
35225;SDS011;21813;49.686;21.766;2023-03-29T03:20:58;11.20;;;6.65;;
35225;SDS011;21813;49.686;21.766;2023-03-29T03:23:26;14.75;;;6.95;;
35225;SDS011;21813;49.686;21.766;2023-03-29T03:25:53;11.25;;;5.97;;
35225;SDS011;21813;49.686;21.766;2023-03-29T03:28:37;12.45;;;6.63;;
35225;SDS011;21813;49.686;21.766;2023-03-29T03:31:03;12.48;;;6.13;;
35225;SDS011;21813;49.686;21.766;2023-03-29T03:33:30;12.68;;;6.88;;
35225;SDS011;21813;49.686;21.766;2023-03-29T03:35:59;12.70;;;6.20;;
35225;SDS011;21813;49.686;21.766;2023-03-29T03:38:33;12.18;;;6.53;;
35225;SDS011;21813;49.686;21.766;2023-03-29T03:41:00;12.77;;;6.05;;
35225;SDS011;21813;49.686;21.766;2023-03-29T03:47:29;15.80;;;6.70;;
35225;SDS011;21813;49.686;21.766;2023-03-29T03:50:23;16.67;;;6.43;;
35225;SDS011;21813;49.686;21.766;2023-03-29T03:52:49;12.95;;;5.97;;
35225;SDS011;21813;49.686;21.766;2023-03-29T03:55:18;23.30;;;7.50;;
35225;SDS011;21813;49.686;21.766;2023-03-29T04:01:04;18.35;;;7.78;;
35225;SDS011;21813;49.686;21.766;2023-03-29T04:03:30;13.77;;;6.55;;
35225;SDS011;21813;49.686;21.766;2023-03-29T04:06:00;12.55;;;7.32;;
35225;SDS011;21813;49.686;21.766;2023-03-29T04:08:26;15.13;;;7.05;;
35225;SDS011;21813;49.686;21.766;2023-03-29T04:10:54;12.70;;;7.07;;
35225;SDS011;21813;49.686;21.766;2023-03-29T04:13:36;17.50;;;8.40;;
35225;SDS011;21813;49.686;21.766;2023-03-29T04:16:02;15.25;;;8.25;;
35225;SDS011;21813;49.686;21.766;2023-03-29T04:18:28;16.13;;;7.97;;
35225;SDS011;21813;49.686;21.766;2023-03-29T04:20:55;18.75;;;7.40;;
35225;SDS011;21813;49.686;21.766;2023-03-29T04:23:23;16.33;;;7.13;;
35225;SDS011;21813;49.686;21.766;2023-03-29T04:29:31;13.93;;;8.40;;
35225;SDS011;21813;49.686;21.766;2023-03-29T04:31:59;19.65;;;8.43;;
35225;SDS011;21813;49.686;21.766;2023-03-29T04:34:25;20.17;;;9.02;;
35225;SDS011;21813;49.686;21.766;2023-03-29T04:37:06;20.02;;;9.93;;
35225;SDS011;21813;49.686;21.766;2023-03-29T04:39:35;18.08;;;9.80;;
35225;SDS011;21813;49.686;21.766;2023-03-29T04:42:02;20.33;;;10.13;;
35225;SDS011;21813;49.686;21.766;2023-03-29T04:44:31;23.05;;;10.85;;
35225;SDS011;21813;49.686;21.766;2023-03-29T04:50:23;19.73;;;11.90;;
35225;SDS011;21813;49.686;21.766;2023-03-29T04:52:50;37.30;;;12.40;;
35225;SDS011;21813;49.686;21.766;2023-03-29T04:55:16;27.58;;;10.00;;
35225;SDS011;21813;49.686;21.766;2023-03-29T04:57:42;17.70;;;8.30;;
35225;SDS011;21813;49.686;21.766;2023-03-29T05:00:12;16.15;;;7.63;;
35225;SDS011;21813;49.686;21.766;2023-03-29T05:02:42;13.45;;;7.05;;
35225;SDS011;21813;49.686;21.766;2023-03-29T05:05:17;14.45;;;6.82;;
35225;SDS011;21813;49.686;21.766;2023-03-29T05:07:44;13.25;;;6.68;;
35225;SDS011;21813;49.686;21.766;2023-03-29T05:10:09;13.98;;;7.60;;
35225;SDS011;21813;49.686;21.766;2023-03-29T05:12:51;17.23;;;6.60;;
35225;SDS011;21813;49.686;21.766;2023-03-29T05:15:18;13.73;;;6.25;;
35225;SDS011;21813;49.686;21.766;2023-03-29T05:17:47;15.35;;;7.25;;
35225;SDS011;21813;49.686;21.766;2023-03-29T05:20:13;18.65;;;6.80;;
35225;SDS011;21813;49.686;21.766;2023-03-29T05:22:44;20.15;;;8.02;;
35225;SDS011;21813;49.686;21.766;2023-03-29T05:25:10;17.67;;;7.15;;
35225;SDS011;21813;49.686;21.766;2023-03-29T05:27:36;15.82;;;7.63;;
35225;SDS011;21813;49.686;21.766;2023-03-29T05:30:12;16.98;;;7.47;;
35225;SDS011;21813;49.686;21.766;2023-03-29T05:32:40;16.65;;;7.75;;
35225;SDS011;21813;49.686;21.766;2023-03-29T05:35:41;40.08;;;10.00;;
35225;SDS011;21813;49.686;21.766;2023-03-29T05:38:01;16.25;;;7.10;;
35225;SDS011;21813;49.686;21.766;2023-03-29T05:40:40;17.20;;;7.32;;
35225;SDS011;21813;49.686;21.766;2023-03-29T05:43:10;14.10;;;7.25;;
35225;SDS011;21813;49.686;21.766;2023-03-29T05:45:36;19.20;;;8.25;;
35225;SDS011;21813;49.686;21.766;2023-03-29T05:48:34;23.52;;;8.50;;
35225;SDS011;21813;49.686;21.766;2023-03-29T05:51:00;18.88;;;7.85;;
35225;SDS011;21813;49.686;21.766;2023-03-29T05:53:27;19.23;;;8.15;;
35225;SDS011;21813;49.686;21.766;2023-03-29T05:55:53;16.02;;;7.90;;
35225;SDS011;21813;49.686;21.766;2023-03-29T05:58:19;17.08;;;7.80;;
35225;SDS011;21813;49.686;21.766;2023-03-29T06:00:46;17.25;;;6.75;;
35225;SDS011;21813;49.686;21.766;2023-03-29T06:03:16;16.77;;;7.70;;
35225;SDS011;21813;49.686;21.766;2023-03-29T06:05:47;17.77;;;6.43;;
35225;SDS011;21813;49.686;21.766;2023-03-29T06:08:14;12.35;;;5.70;;
35225;SDS011;21813;49.686;21.766;2023-03-29T06:10:41;15.43;;;6.63;;
35225;SDS011;21813;49.686;21.766;2023-03-29T06:13:08;61.00;;;11.20;;
35225;SDS011;21813;49.686;21.766;2023-03-29T06:15:35;18.98;;;6.28;;
35225;SDS011;21813;49.686;21.766;2023-03-29T06:20:47;11.30;;;5.70;;
35225;SDS011;21813;49.686;21.766;2023-03-29T06:23:19;11.05;;;5.75;;
35225;SDS011;21813;49.686;21.766;2023-03-29T06:25:45;14.13;;;6.28;;
35225;SDS011;21813;49.686;21.766;2023-03-29T06:28:21;16.13;;;6.07;;
35225;SDS011;21813;49.686;21.766;2023-03-29T06:30:48;15.68;;;5.97;;
35225;SDS011;21813;49.686;21.766;2023-03-29T06:33:14;20.38;;;6.18;;
35225;SDS011;21813;49.686;21.766;2023-03-29T06:35:45;28.40;;;6.47;;
35225;SDS011;21813;49.686;21.766;2023-03-29T06:38:29;11.63;;;6.22;;
35225;SDS011;21813;49.686;21.766;2023-03-29T06:41:54;11.68;;;6.05;;
35225;SDS011;21813;49.686;21.766;2023-03-29T06:44:32;12.60;;;5.28;;
35225;SDS011;21813;49.686;21.766;2023-03-29T06:46:58;16.38;;;6.18;;
35225;SDS011;21813;49.686;21.766;2023-03-29T06:49:27;9.82;;;4.95;;
35225;SDS011;21813;49.686;21.766;2023-03-29T06:54:50;20.20;;;8.15;;
35225;SDS011;21813;49.686;21.766;2023-03-29T06:57:16;12.88;;;6.22;;
35225;SDS011;21813;49.686;21.766;2023-03-29T06:59:42;15.88;;;7.00;;
35225;SDS011;21813;49.686;21.766;2023-03-29T07:02:21;13.55;;;6.45;;
35225;SDS011;21813;49.686;21.766;2023-03-29T07:04:47;13.95;;;6.28;;
35225;SDS011;21813;49.686;21.766;2023-03-29T07:07:13;10.82;;;4.88;;
35225;SDS011;21813;49.686;21.766;2023-03-29T07:09:46;11.13;;;4.93;;
35225;SDS011;21813;49.686;21.766;2023-03-29T07:12:19;8.88;;;4.60;;
35225;SDS011;21813;49.686;21.766;2023-03-29T07:14:46;9.88;;;6.03;;
35225;SDS011;21813;49.686;21.766;2023-03-29T07:17:14;9.52;;;5.53;;
35225;SDS011;21813;49.686;21.766;2023-03-29T07:19:41;8.45;;;4.97;;
35225;SDS011;21813;49.686;21.766;2023-03-29T07:22:06;8.60;;;4.78;;
35225;SDS011;21813;49.686;21.766;2023-03-29T07:24:32;8.55;;;4.18;;
35225;SDS011;21813;49.686;21.766;2023-03-29T07:33:36;8.70;;;4.43;;
35225;SDS011;21813;49.686;21.766;2023-03-29T07:40:07;7.28;;;3.80;;
35225;SDS011;21813;49.686;21.766;2023-03-29T07:42:44;5.30;;;3.37;;
35225;SDS011;21813;49.686;21.766;2023-03-29T07:45:14;6.88;;;3.50;;
35225;SDS011;21813;49.686;21.766;2023-03-29T07:47:45;7.10;;;3.92;;
35225;SDS011;21813;49.686;21.766;2023-03-29T07:50:16;7.03;;;4.25;;
35225;SDS011;21813;49.686;21.766;2023-03-29T07:52:42;7.40;;;4.03;;
35225;SDS011;21813;49.686;21.766;2023-03-29T07:58:18;6.80;;;3.80;;
35225;SDS011;21813;49.686;21.766;2023-03-29T08:00:47;9.52;;;3.50;;
35225;SDS011;21813;49.686;21.766;2023-03-29T08:03:13;10.93;;;3.88;;
35225;SDS011;21813;49.686;21.766;2023-03-29T08:08:44;5.38;;;3.33;;
35225;SDS011;21813;49.686;21.766;2023-03-29T08:33:30;3.03;;;2.25;;
35225;SDS011;21813;49.686;21.766;2023-03-29T08:50:45;4.57;;;3.45;;
35225;SDS011;21813;49.686;21.766;2023-03-29T10:24:24;4.80;;;3.05;;
35225;SDS011;21813;49.686;21.766;2023-03-29T10:31:42;5.68;;;3.17;;
35225;SDS011;21813;49.686;21.766;2023-03-29T10:34:17;7.97;;;3.55;;
35225;SDS011;21813;49.686;21.766;2023-03-29T10:37:02;5.55;;;3.40;;
35225;SDS011;21813;49.686;21.766;2023-03-29T11:04:46;8.65;;;4.93;;
35225;SDS011;21813;49.686;21.766;2023-03-29T11:19:45;7.57;;;4.13;;
35225;SDS011;21813;49.686;21.766;2023-03-29T11:48:30;6.68;;;3.53;;
35225;SDS011;21813;49.686;21.766;2023-03-29T12:03:27;5.65;;;3.17;;
35225;SDS011;21813;49.686;21.766;2023-03-29T12:06:22;6.45;;;3.53;;
35225;SDS011;21813;49.686;21.766;2023-03-29T12:11:51;4.57;;;3.17;;
35225;SDS011;21813;49.686;21.766;2023-03-29T12:17:43;4.60;;;3.08;;
35225;SDS011;21813;49.686;21.766;2023-03-29T12:23:42;4.43;;;3.00;;
35225;SDS011;21813;49.686;21.766;2023-03-29T13:27:33;4.88;;;2.72;;
35225;SDS011;21813;49.686;21.766;2023-03-29T13:43:29;6.15;;;2.63;;
35225;SDS011;21813;49.686;21.766;2023-03-29T14:09:21;4.20;;;2.78;;
35225;SDS011;21813;49.686;21.766;2023-03-29T14:11:59;7.53;;;3.40;;
35225;SDS011;21813;49.686;21.766;2023-03-29T14:14:26;5.57;;;3.70;;
35225;SDS011;21813;49.686;21.766;2023-03-29T14:16:55;6.00;;;3.33;;
35225;SDS011;21813;49.686;21.766;2023-03-29T14:19:32;6.00;;;3.00;;
35225;SDS011;21813;49.686;21.766;2023-03-29T14:22:01;3.78;;;2.45;;
35225;SDS011;21813;49.686;21.766;2023-03-29T14:24:36;3.10;;;2.47;;
35225;SDS011;21813;49.686;21.766;2023-03-29T14:27:04;8.30;;;2.80;;
35225;SDS011;21813;49.686;21.766;2023-03-29T14:29:36;10.55;;;4.68;;
35225;SDS011;21813;49.686;21.766;2023-03-29T14:32:10;11.25;;;4.57;;
35225;SDS011;21813;49.686;21.766;2023-03-29T14:34:40;5.68;;;3.22;;
35225;SDS011;21813;49.686;21.766;2023-03-29T14:39:40;4.38;;;3.20;;
35225;SDS011;21813;49.686;21.766;2023-03-29T14:42:11;4.07;;;3.15;;
35225;SDS011;21813;49.686;21.766;2023-03-29T14:44:41;8.90;;;4.78;;
35225;SDS011;21813;49.686;21.766;2023-03-29T14:47:10;6.28;;;3.25;;
35225;SDS011;21813;49.686;21.766;2023-03-29T14:49:51;7.43;;;3.53;;
35225;SDS011;21813;49.686;21.766;2023-03-29T14:52:23;5.53;;;3.13;;
35225;SDS011;21813;49.686;21.766;2023-03-29T14:54:50;5.70;;;3.47;;
35225;SDS011;21813;49.686;21.766;2023-03-29T14:57:22;4.75;;;3.15;;
35225;SDS011;21813;49.686;21.766;2023-03-29T14:59:51;6.15;;;2.95;;
35225;SDS011;21813;49.686;21.766;2023-03-29T15:04:57;5.30;;;3.30;;
35225;SDS011;21813;49.686;21.766;2023-03-29T15:07:32;6.90;;;3.50;;
35225;SDS011;21813;49.686;21.766;2023-03-29T15:10:01;11.38;;;3.80;;
35225;SDS011;21813;49.686;21.766;2023-03-29T15:12:33;5.75;;;3.10;;
35225;SDS011;21813;49.686;21.766;2023-03-29T15:15:02;4.72;;;3.50;;
35225;SDS011;21813;49.686;21.766;2023-03-29T15:19:59;8.02;;;3.58;;
35225;SDS011;21813;49.686;21.766;2023-03-29T15:25:46;5.28;;;3.22;;
35225;SDS011;21813;49.686;21.766;2023-03-29T15:37:41;4.28;;;3.40;;
35225;SDS011;21813;49.686;21.766;2023-03-29T15:47:09;6.50;;;3.60;;
35225;SDS011;21813;49.686;21.766;2023-03-29T15:49:45;5.90;;;4.05;;
35225;SDS011;21813;49.686;21.766;2023-03-29T15:52:11;8.55;;;3.40;;
35225;SDS011;21813;49.686;21.766;2023-03-29T15:54:37;5.57;;;3.63;;
35225;SDS011;21813;49.686;21.766;2023-03-29T15:57:04;5.47;;;3.45;;
35225;SDS011;21813;49.686;21.766;2023-03-29T15:59:32;7.53;;;3.63;;
35225;SDS011;21813;49.686;21.766;2023-03-29T16:01:59;6.72;;;3.53;;
35225;SDS011;21813;49.686;21.766;2023-03-29T16:04:25;6.43;;;3.53;;
35225;SDS011;21813;49.686;21.766;2023-03-29T16:06:51;6.28;;;4.03;;
35225;SDS011;21813;49.686;21.766;2023-03-29T16:09:19;5.57;;;3.60;;
35225;SDS011;21813;49.686;21.766;2023-03-29T16:11:46;7.05;;;3.92;;
35225;SDS011;21813;49.686;21.766;2023-03-29T16:16:51;8.95;;;4.70;;
35225;SDS011;21813;49.686;21.766;2023-03-29T16:19:20;7.35;;;4.00;;
35225;SDS011;21813;49.686;21.766;2023-03-29T16:21:46;8.75;;;4.45;;
35225;SDS011;21813;49.686;21.766;2023-03-29T16:24:14;8.75;;;4.78;;
35225;SDS011;21813;49.686;21.766;2023-03-29T16:26:41;13.43;;;7.88;;
35225;SDS011;21813;49.686;21.766;2023-03-29T16:29:09;18.50;;;8.30;;
35225;SDS011;21813;49.686;21.766;2023-03-29T16:31:34;22.23;;;9.43;;
35225;SDS011;21813;49.686;21.766;2023-03-29T16:34:01;20.23;;;8.57;;
35225;SDS011;21813;49.686;21.766;2023-03-29T16:36:27;16.77;;;8.30;;
35225;SDS011;21813;49.686;21.766;2023-03-29T16:38:55;14.13;;;7.57;;
35225;SDS011;21813;49.686;21.766;2023-03-29T16:41:21;13.23;;;7.35;;
35225;SDS011;21813;49.686;21.766;2023-03-29T16:43:47;15.13;;;7.93;;
35225;SDS011;21813;49.686;21.766;2023-03-29T16:46:13;17.63;;;8.20;;
35225;SDS011;21813;49.686;21.766;2023-03-29T16:48:40;18.73;;;9.40;;
35225;SDS011;21813;49.686;21.766;2023-03-29T16:51:06;17.25;;;8.65;;
35225;SDS011;21813;49.686;21.766;2023-03-29T16:53:33;23.95;;;9.80;;
35225;SDS011;21813;49.686;21.766;2023-03-29T16:55:59;23.27;;;10.77;;
35225;SDS011;21813;49.686;21.766;2023-03-29T16:58:26;24.70;;;11.48;;
35225;SDS011;21813;49.686;21.766;2023-03-29T17:00:52;28.45;;;12.68;;
35225;SDS011;21813;49.686;21.766;2023-03-29T17:03:19;26.08;;;11.20;;
35225;SDS011;21813;49.686;21.766;2023-03-29T17:05:54;18.73;;;9.70;;
35225;SDS011;21813;49.686;21.766;2023-03-29T17:08:21;17.50;;;9.02;;
35225;SDS011;21813;49.686;21.766;2023-03-29T17:10:51;15.60;;;8.15;;
35225;SDS011;21813;49.686;21.766;2023-03-29T17:13:18;19.50;;;9.80;;
35225;SDS011;21813;49.686;21.766;2023-03-29T17:15:45;24.83;;;12.77;;
35225;SDS011;21813;49.686;21.766;2023-03-29T17:18:11;23.80;;;12.00;;
35225;SDS011;21813;49.686;21.766;2023-03-29T17:20:38;29.83;;;15.57;;
35225;SDS011;21813;49.686;21.766;2023-03-29T17:23:04;29.83;;;14.95;;
35225;SDS011;21813;49.686;21.766;2023-03-29T17:25:30;30.67;;;15.60;;
35225;SDS011;21813;49.686;21.766;2023-03-29T17:27:56;24.25;;;13.95;;
35225;SDS011;21813;49.686;21.766;2023-03-29T17:30:22;25.20;;;13.75;;
35225;SDS011;21813;49.686;21.766;2023-03-29T17:32:48;24.20;;;13.45;;
35225;SDS011;21813;49.686;21.766;2023-03-29T17:35:13;24.88;;;12.93;;
35225;SDS011;21813;49.686;21.766;2023-03-29T17:37:39;26.23;;;14.25;;
35225;SDS011;21813;49.686;21.766;2023-03-29T17:40:06;24.27;;;12.52;;
35225;SDS011;21813;49.686;21.766;2023-03-29T17:42:41;32.63;;;15.20;;
35225;SDS011;21813;49.686;21.766;2023-03-29T17:45:08;45.35;;;21.50;;
35225;SDS011;21813;49.686;21.766;2023-03-29T17:47:35;63.45;;;28.02;;
35225;SDS011;21813;49.686;21.766;2023-03-29T17:50:02;67.13;;;31.23;;
35225;SDS011;21813;49.686;21.766;2023-03-29T17:52:29;64.55;;;31.02;;
35225;SDS011;21813;49.686;21.766;2023-03-29T17:54:55;74.32;;;33.50;;
35225;SDS011;21813;49.686;21.766;2023-03-29T17:57:21;100.40;;;37.00;;
35225;SDS011;21813;49.686;21.766;2023-03-29T17:59:46;83.35;;;33.20;;
35225;SDS011;21813;49.686;21.766;2023-03-29T18:02:16;90.07;;;36.40;;
35225;SDS011;21813;49.686;21.766;2023-03-29T18:04:46;85.72;;;35.25;;
35225;SDS011;21813;49.686;21.766;2023-03-29T18:07:12;86.75;;;34.60;;
35225;SDS011;21813;49.686;21.766;2023-03-29T18:09:38;75.47;;;32.35;;
35225;SDS011;21813;49.686;21.766;2023-03-29T18:12:04;78.88;;;32.25;;
35225;SDS011;21813;49.686;21.766;2023-03-29T18:14:30;81.32;;;33.13;;
35225;SDS011;21813;49.686;21.766;2023-03-29T18:16:57;87.60;;;34.45;;
35225;SDS011;21813;49.686;21.766;2023-03-29T18:19:23;88.68;;;34.92;;
35225;SDS011;21813;49.686;21.766;2023-03-29T18:21:48;79.25;;;32.75;;
35225;SDS011;21813;49.686;21.766;2023-03-29T18:24:15;71.13;;;30.88;;
35225;SDS011;21813;49.686;21.766;2023-03-29T18:26:41;82.35;;;32.47;;
35225;SDS011;21813;49.686;21.766;2023-03-29T18:29:07;84.38;;;33.38;;
35225;SDS011;21813;49.686;21.766;2023-03-29T18:31:33;78.05;;;35.88;;
35225;SDS011;21813;49.686;21.766;2023-03-29T18:33:58;75.35;;;32.95;;
35225;SDS011;21813;49.686;21.766;2023-03-29T18:36:24;77.18;;;35.67;;
35225;SDS011;21813;49.686;21.766;2023-03-29T18:38:50;74.82;;;31.70;;
35225;SDS011;21813;49.686;21.766;2023-03-29T18:41:21;70.63;;;32.97;;
35225;SDS011;21813;49.686;21.766;2023-03-29T18:43:50;70.95;;;32.80;;
35225;SDS011;21813;49.686;21.766;2023-03-29T18:46:16;65.57;;;31.83;;
35225;SDS011;21813;49.686;21.766;2023-03-29T18:48:41;72.60;;;32.70;;
35225;SDS011;21813;49.686;21.766;2023-03-29T18:51:08;74.35;;;32.72;;
35225;SDS011;21813;49.686;21.766;2023-03-29T18:53:36;73.60;;;33.80;;
35225;SDS011;21813;49.686;21.766;2023-03-29T18:56:03;69.45;;;32.60;;
35225;SDS011;21813;49.686;21.766;2023-03-29T18:58:31;73.85;;;33.55;;
35225;SDS011;21813;49.686;21.766;2023-03-29T19:01:01;76.07;;;33.10;;
35225;SDS011;21813;49.686;21.766;2023-03-29T19:03:30;47.38;;;23.45;;
35225;SDS011;21813;49.686;21.766;2023-03-29T19:05:56;73.93;;;34.80;;
35225;SDS011;21813;49.686;21.766;2023-03-29T19:08:23;80.55;;;36.38;;
35225;SDS011;21813;49.686;21.766;2023-03-29T19:10:50;80.70;;;34.28;;
35225;SDS011;21813;49.686;21.766;2023-03-29T19:13:16;81.18;;;34.33;;
35225;SDS011;21813;49.686;21.766;2023-03-29T19:15:51;61.28;;;28.15;;
35225;SDS011;21813;49.686;21.766;2023-03-29T19:18:25;58.13;;;26.20;;
35225;SDS011;21813;49.686;21.766;2023-03-29T19:24:08;50.42;;;23.95;;
35225;SDS011;21813;49.686;21.766;2023-03-29T19:26:34;57.00;;;25.77;;
35225;SDS011;21813;49.686;21.766;2023-03-29T19:32:17;53.30;;;22.75;;
35225;SDS011;21813;49.686;21.766;2023-03-29T19:37:42;52.13;;;22.20;;
35225;SDS011;21813;49.686;21.766;2023-03-29T19:40:22;78.10;;;34.47;;
35225;SDS011;21813;49.686;21.766;2023-03-29T19:42:48;88.65;;;38.13;;
35225;SDS011;21813;49.686;21.766;2023-03-29T19:45:14;78.47;;;34.72;;
35225;SDS011;21813;49.686;21.766;2023-03-29T19:47:40;64.03;;;29.25;;
35225;SDS011;21813;49.686;21.766;2023-03-29T19:50:08;69.63;;;29.17;;
35225;SDS011;21813;49.686;21.766;2023-03-29T19:52:34;72.43;;;29.67;;
35225;SDS011;21813;49.686;21.766;2023-03-29T19:55:00;84.28;;;33.15;;
35225;SDS011;21813;49.686;21.766;2023-03-29T19:57:26;83.40;;;32.97;;
35225;SDS011;21813;49.686;21.766;2023-03-29T19:59:52;84.72;;;33.17;;
35225;SDS011;21813;49.686;21.766;2023-03-29T20:02:18;81.72;;;35.10;;
35225;SDS011;21813;49.686;21.766;2023-03-29T20:04:44;90.68;;;36.70;;
35225;SDS011;21813;49.686;21.766;2023-03-29T20:07:10;86.93;;;35.72;;
35225;SDS011;21813;49.686;21.766;2023-03-29T20:09:36;80.68;;;34.80;;
35225;SDS011;21813;49.686;21.766;2023-03-29T20:12:03;103.00;;;39.25;;
35225;SDS011;21813;49.686;21.766;2023-03-29T20:14:29;96.93;;;42.30;;
35225;SDS011;21813;49.686;21.766;2023-03-29T20:16:55;97.70;;;42.83;;
35225;SDS011;21813;49.686;21.766;2023-03-29T20:19:20;104.28;;;44.60;;
35225;SDS011;21813;49.686;21.766;2023-03-29T20:21:50;101.32;;;42.88;;
35225;SDS011;21813;49.686;21.766;2023-03-29T20:24:21;98.07;;;42.30;;
35225;SDS011;21813;49.686;21.766;2023-03-29T20:26:48;93.57;;;39.15;;
35225;SDS011;21813;49.686;21.766;2023-03-29T20:29:15;97.10;;;40.90;;
35225;SDS011;21813;49.686;21.766;2023-03-29T20:31:44;94.53;;;41.13;;
35225;SDS011;21813;49.686;21.766;2023-03-29T20:34:10;94.93;;;41.13;;
35225;SDS011;21813;49.686;21.766;2023-03-29T20:36:37;105.47;;;41.95;;
35225;SDS011;21813;49.686;21.766;2023-03-29T20:39:04;95.82;;;41.22;;
35225;SDS011;21813;49.686;21.766;2023-03-29T20:41:30;101.47;;;41.80;;
35225;SDS011;21813;49.686;21.766;2023-03-29T20:43:58;92.40;;;41.50;;
35225;SDS011;21813;49.686;21.766;2023-03-29T20:46:25;95.70;;;41.90;;
35225;SDS011;21813;49.686;21.766;2023-03-29T20:48:58;151.00;;;59.35;;
35225;SDS011;21813;49.686;21.766;2023-03-29T20:51:25;176.70;;;73.35;;
35225;SDS011;21813;49.686;21.766;2023-03-29T20:53:58;116.70;;;51.25;;
35225;SDS011;21813;49.686;21.766;2023-03-29T20:56:35;114.30;;;48.80;;
35225;SDS011;21813;49.686;21.766;2023-03-29T20:59:04;107.40;;;47.58;;
35225;SDS011;21813;49.686;21.766;2023-03-29T21:01:31;106.72;;;48.40;;
35225;SDS011;21813;49.686;21.766;2023-03-29T21:03:59;101.53;;;45.55;;
35225;SDS011;21813;49.686;21.766;2023-03-29T21:06:25;107.85;;;45.17;;
35225;SDS011;21813;49.686;21.766;2023-03-29T21:08:51;95.43;;;40.05;;
35225;SDS011;21813;49.686;21.766;2023-03-29T21:11:18;90.82;;;40.08;;
35225;SDS011;21813;49.686;21.766;2023-03-29T21:13:45;87.50;;;37.70;;
35225;SDS011;21813;49.686;21.766;2023-03-29T21:16:12;87.30;;;37.00;;
35225;SDS011;21813;49.686;21.766;2023-03-29T21:18:38;84.93;;;35.25;;
35225;SDS011;21813;49.686;21.766;2023-03-29T21:21:06;83.40;;;37.22;;
35225;SDS011;21813;49.686;21.766;2023-03-29T21:23:32;78.70;;;36.60;;
35225;SDS011;21813;49.686;21.766;2023-03-29T21:25:59;71.78;;;31.42;;
35225;SDS011;21813;49.686;21.766;2023-03-29T21:28:24;73.72;;;31.50;;
35225;SDS011;21813;49.686;21.766;2023-03-29T21:30:51;69.45;;;30.67;;
35225;SDS011;21813;49.686;21.766;2023-03-29T21:33:16;63.53;;;28.73;;
35225;SDS011;21813;49.686;21.766;2023-03-29T21:35:42;67.78;;;27.27;;
35225;SDS011;21813;49.686;21.766;2023-03-29T21:38:08;58.55;;;26.45;;
35225;SDS011;21813;49.686;21.766;2023-03-29T21:40:36;54.60;;;25.02;;
35225;SDS011;21813;49.686;21.766;2023-03-29T21:43:03;52.60;;;23.65;;
35225;SDS011;21813;49.686;21.766;2023-03-29T21:45:29;61.60;;;24.48;;